sensor_id;sensor_type;location;lat;lon;timestamp;pressure;altitude;pressure_sealevel;temperature;humidity
18396;BME280;76377;45.194;5.734;2024-03-17T00:01:02;99787.53;;;11.91;72.48
18396;BME280;76377;45.194;5.734;2024-03-17T00:03:30;99787.50;;;11.76;72.71
18396;BME280;76377;45.194;5.734;2024-03-17T00:05:56;99787.41;;;11.72;72.95
18396;BME280;76377;45.194;5.734;2024-03-17T00:08:26;99775.41;;;11.68;72.80
18396;BME280;76377;45.194;5.734;2024-03-17T00:10:52;99772.66;;;11.68;72.86
18396;BME280;76377;45.194;5.734;2024-03-17T00:13:20;99777.28;;;11.64;73.20
18396;BME280;76377;45.194;5.734;2024-03-17T00:15:48;99779.72;;;11.65;73.03
18396;BME280;76377;45.194;5.734;2024-03-17T00:18:14;99783.72;;;11.68;72.81
18396;BME280;76377;45.194;5.734;2024-03-17T00:20:41;99785.25;;;11.65;72.62
18396;BME280;76377;45.194;5.734;2024-03-17T00:23:09;99786.06;;;11.66;72.32
18396;BME280;76377;45.194;5.734;2024-03-17T00:25:39;99794.81;;;11.68;71.89
18396;BME280;76377;45.194;5.734;2024-03-17T00:28:05;99790.88;;;11.69;72.43
18396;BME280;76377;45.194;5.734;2024-03-17T00:30:33;99775.88;;;11.70;72.19
18396;BME280;76377;45.194;5.734;2024-03-17T00:32:59;99779.81;;;11.69;71.63
18396;BME280;76377;45.194;5.734;2024-03-17T00:35:29;99775.78;;;11.66;71.30
18396;BME280;76377;45.194;5.734;2024-03-17T00:37:56;99777.47;;;11.71;71.42
18396;BME280;76377;45.194;5.734;2024-03-17T00:40:24;99773.00;;;11.66;71.63
18396;BME280;76377;45.194;5.734;2024-03-17T00:42:51;99772.47;;;11.61;71.76
18396;BME280;76377;45.194;5.734;2024-03-17T00:45:20;99770.75;;;11.56;72.03
18396;BME280;76377;45.194;5.734;2024-03-17T00:47:46;99773.69;;;11.48;72.15
18396;BME280;76377;45.194;5.734;2024-03-17T00:50:13;99772.75;;;11.44;72.61
18396;BME280;76377;45.194;5.734;2024-03-17T00:52:39;99775.19;;;11.45;72.37
18396;BME280;76377;45.194;5.734;2024-03-17T00:55:07;99764.78;;;11.42;72.79
18396;BME280;76377;45.194;5.734;2024-03-17T00:57:35;99761.81;;;11.47;72.44
18396;BME280;76377;45.194;5.734;2024-03-17T01:00:05;99771.13;;;11.43;72.33
18396;BME280;76377;45.194;5.734;2024-03-17T01:02:35;99769.53;;;11.42;73.93
18396;BME280;76377;45.194;5.734;2024-03-17T01:05:01;99780.50;;;11.38;74.95
18396;BME280;76377;45.194;5.734;2024-03-17T01:07:31;99777.63;;;11.34;75.06
18396;BME280;76377;45.194;5.734;2024-03-17T01:09:57;99776.28;;;11.28;75.42
18396;BME280;76377;45.194;5.734;2024-03-17T01:12:24;99778.09;;;11.36;75.10
18396;BME280;76377;45.194;5.734;2024-03-17T01:14:50;99776.38;;;11.32;74.07
18396;BME280;76377;45.194;5.734;2024-03-17T01:17:19;99780.75;;;11.33;73.42
18396;BME280;76377;45.194;5.734;2024-03-17T01:19:45;99775.38;;;11.24;74.19
18396;BME280;76377;45.194;5.734;2024-03-17T01:22:12;99783.91;;;11.19;74.99
18396;BME280;76377;45.194;5.734;2024-03-17T01:24:38;99775.16;;;11.17;75.13
18396;BME280;76377;45.194;5.734;2024-03-17T01:27:11;99769.13;;;10.99;75.48
18396;BME280;76377;45.194;5.734;2024-03-17T01:29:40;99778.78;;;11.05;75.43
18396;BME280;76377;45.194;5.734;2024-03-17T01:32:07;99769.91;;;11.00;75.60
18396;BME280;76377;45.194;5.734;2024-03-17T01:34:35;99768.31;;;10.99;75.85
18396;BME280;76377;45.194;5.734;2024-03-17T01:37:02;99758.81;;;11.12;75.11
18396;BME280;76377;45.194;5.734;2024-03-17T01:39:28;99760.66;;;11.08;75.81
18396;BME280;76377;45.194;5.734;2024-03-17T01:41:55;99759.19;;;10.98;75.88
18396;BME280;76377;45.194;5.734;2024-03-17T01:44:26;99758.75;;;10.96;76.65
18396;BME280;76377;45.194;5.734;2024-03-17T01:46:54;99750.91;;;10.98;76.65
18396;BME280;76377;45.194;5.734;2024-03-17T01:49:20;99738.56;;;10.96;77.06
18396;BME280;76377;45.194;5.734;2024-03-17T01:51:50;99737.78;;;10.95;77.04
18396;BME280;76377;45.194;5.734;2024-03-17T01:54:17;99729.13;;;10.97;77.31
18396;BME280;76377;45.194;5.734;2024-03-17T01:56:44;99732.09;;;11.04;76.84
18396;BME280;76377;45.194;5.734;2024-03-17T01:59:12;99724.94;;;11.03;77.46
18396;BME280;76377;45.194;5.734;2024-03-17T02:01:39;99724.84;;;10.99;77.32
18396;BME280;76377;45.194;5.734;2024-03-17T02:04:07;99727.50;;;10.96;77.83
18396;BME280;76377;45.194;5.734;2024-03-17T02:06:34;99720.91;;;11.00;77.66
18396;BME280;76377;45.194;5.734;2024-03-17T02:09:02;99702.25;;;10.97;77.74
18396;BME280;76377;45.194;5.734;2024-03-17T02:11:30;99709.53;;;10.90;77.54
18396;BME280;76377;45.194;5.734;2024-03-17T02:13:57;99713.34;;;10.85;77.88
18396;BME280;76377;45.194;5.734;2024-03-17T02:16:25;99710.91;;;10.84;78.54
18396;BME280;76377;45.194;5.734;2024-03-17T02:18:54;99707.50;;;10.74;79.24
18396;BME280;76377;45.194;5.734;2024-03-17T02:21:21;99705.44;;;10.71;79.71
18396;BME280;76377;45.194;5.734;2024-03-17T02:23:50;99699.00;;;10.67;79.79
18396;BME280;76377;45.194;5.734;2024-03-17T02:26:18;99702.34;;;10.61;80.89
18396;BME280;76377;45.194;5.734;2024-03-17T02:28:45;99695.81;;;10.53;80.88
18396;BME280;76377;45.194;5.734;2024-03-17T02:31:14;99691.88;;;10.54;80.32
18396;BME280;76377;45.194;5.734;2024-03-17T02:33:41;99698.34;;;10.46;80.46
18396;BME280;76377;45.194;5.734;2024-03-17T02:36:09;99697.53;;;10.46;80.76
18396;BME280;76377;45.194;5.734;2024-03-17T02:38:37;99697.09;;;10.43;80.51
18396;BME280;76377;45.194;5.734;2024-03-17T02:41:24;99700.31;;;10.46;80.61
18396;BME280;76377;45.194;5.734;2024-03-17T02:43:51;99698.09;;;10.51;80.39
18396;BME280;76377;45.194;5.734;2024-03-17T02:46:18;99696.50;;;10.50;81.32
18396;BME280;76377;45.194;5.734;2024-03-17T02:48:52;99687.53;;;10.41;80.90
18396;BME280;76377;45.194;5.734;2024-03-17T02:51:21;99692.13;;;10.37;81.06
18396;BME280;76377;45.194;5.734;2024-03-17T02:53:50;99690.16;;;10.37;81.30
18396;BME280;76377;45.194;5.734;2024-03-17T02:56:17;99692.00;;;10.46;80.69
18396;BME280;76377;45.194;5.734;2024-03-17T02:58:47;99689.59;;;10.32;81.32
18396;BME280;76377;45.194;5.734;2024-03-17T03:01:14;99693.28;;;10.24;81.91
18396;BME280;76377;45.194;5.734;2024-03-17T03:03:42;99689.38;;;10.25;81.63
18396;BME280;76377;45.194;5.734;2024-03-17T03:06:09;99687.97;;;10.31;81.37
18396;BME280;76377;45.194;5.734;2024-03-17T03:08:38;99679.34;;;10.32;81.81
18396;BME280;76377;45.194;5.734;2024-03-17T03:11:07;99676.94;;;10.31;82.21
18396;BME280;76377;45.194;5.734;2024-03-17T03:13:37;99675.31;;;10.30;82.28
18396;BME280;76377;45.194;5.734;2024-03-17T03:16:06;99679.13;;;10.25;81.88
18396;BME280;76377;45.194;5.734;2024-03-17T03:18:33;99669.56;;;10.23;81.82
18396;BME280;76377;45.194;5.734;2024-03-17T03:21:00;99671.88;;;10.21;82.12
18396;BME280;76377;45.194;5.734;2024-03-17T03:23:27;99669.56;;;10.23;82.44
18396;BME280;76377;45.194;5.734;2024-03-17T03:25:55;99668.88;;;10.26;82.50
18396;BME280;76377;45.194;5.734;2024-03-17T03:28:23;99653.19;;;10.30;82.23
18396;BME280;76377;45.194;5.734;2024-03-17T03:30:51;99659.44;;;10.27;82.41
18396;BME280;76377;45.194;5.734;2024-03-17T03:33:20;99667.47;;;10.32;82.84
18396;BME280;76377;45.194;5.734;2024-03-17T03:35:47;99659.44;;;10.27;82.89
18396;BME280;76377;45.194;5.734;2024-03-17T03:38:15;99662.66;;;10.29;82.24
18396;BME280;76377;45.194;5.734;2024-03-17T03:40:42;99664.03;;;10.23;82.27
18396;BME280;76377;45.194;5.734;2024-03-17T03:43:09;99650.78;;;10.28;82.41
18396;BME280;76377;45.194;5.734;2024-03-17T03:45:37;99650.44;;;10.18;82.40
18396;BME280;76377;45.194;5.734;2024-03-17T03:48:05;99651.81;;;10.11;82.27
18396;BME280;76377;45.194;5.734;2024-03-17T03:50:36;99657.81;;;10.13;82.13
18396;BME280;76377;45.194;5.734;2024-03-17T03:53:04;99650.22;;;10.10;82.87
18396;BME280;76377;45.194;5.734;2024-03-17T03:55:31;99640.06;;;10.15;82.66
18396;BME280;76377;45.194;5.734;2024-03-17T03:57:58;99657.72;;;10.22;82.27
18396;BME280;76377;45.194;5.734;2024-03-17T04:00:25;99657.00;;;10.25;82.11
18396;BME280;76377;45.194;5.734;2024-03-17T04:02:57;99659.19;;;10.32;81.82
18396;BME280;76377;45.194;5.734;2024-03-17T04:05:25;99652.97;;;10.35;81.43
18396;BME280;76377;45.194;5.734;2024-03-17T04:07:53;99658.38;;;10.43;81.12
18396;BME280;76377;45.194;5.734;2024-03-17T04:10:20;99642.25;;;10.46;80.25
18396;BME280;76377;45.194;5.734;2024-03-17T04:12:48;99645.81;;;10.46;80.70
18396;BME280;76377;45.194;5.734;2024-03-17T04:15:15;99657.34;;;10.36;81.15
18396;BME280;76377;45.194;5.734;2024-03-17T04:17:43;99662.88;;;10.36;81.25
18396;BME280;76377;45.194;5.734;2024-03-17T04:20:10;99661.00;;;10.40;81.83
18396;BME280;76377;45.194;5.734;2024-03-17T04:22:39;99655.47;;;10.40;81.12
18396;BME280;76377;45.194;5.734;2024-03-17T04:25:08;99646.66;;;10.22;81.82
18396;BME280;76377;45.194;5.734;2024-03-17T04:27:36;99651.59;;;10.17;82.18
18396;BME280;76377;45.194;5.734;2024-03-17T04:30:05;99661.03;;;10.28;82.39
18396;BME280;76377;45.194;5.734;2024-03-17T04:32:33;99664.03;;;10.23;83.60
18396;BME280;76377;45.194;5.734;2024-03-17T04:35:00;99661.47;;;10.18;83.29
18396;BME280;76377;45.194;5.734;2024-03-17T04:37:27;99660.56;;;10.13;83.45
18396;BME280;76377;45.194;5.734;2024-03-17T04:39:54;99657.56;;;10.19;82.35
18396;BME280;76377;45.194;5.734;2024-03-17T04:42:24;99660.34;;;10.19;82.95
18396;BME280;76377;45.194;5.734;2024-03-17T04:44:51;99654.34;;;10.17;83.53
18396;BME280;76377;45.194;5.734;2024-03-17T04:47:19;99662.44;;;10.22;83.45
18396;BME280;76377;45.194;5.734;2024-03-17T04:49:46;99661.38;;;10.14;84.28
18396;BME280;76377;45.194;5.734;2024-03-17T04:52:13;99656.91;;;10.22;83.85
18396;BME280;76377;45.194;5.734;2024-03-17T04:54:42;99650.44;;;10.18;83.70
18396;BME280;76377;45.194;5.734;2024-03-17T04:57:09;99664.50;;;10.25;82.70
18396;BME280;76377;45.194;5.734;2024-03-17T04:59:38;99663.81;;;10.28;82.43
18396;BME280;76377;45.194;5.734;2024-03-17T05:02:05;99652.06;;;10.31;82.19
18396;BME280;76377;45.194;5.734;2024-03-17T05:04:33;99650.91;;;10.32;82.57
18396;BME280;76377;45.194;5.734;2024-03-17T05:07:00;99656.06;;;10.33;81.92
18396;BME280;76377;45.194;5.734;2024-03-17T05:09:27;99661.25;;;10.35;81.48
18396;BME280;76377;45.194;5.734;2024-03-17T05:11:54;99670.00;;;10.37;80.77
18396;BME280;76377;45.194;5.734;2024-03-17T05:14:21;99669.78;;;10.30;81.42
18396;BME280;76377;45.194;5.734;2024-03-17T05:16:51;99673.69;;;10.29;81.59
18396;BME280;76377;45.194;5.734;2024-03-17T05:19:18;99685.88;;;10.40;80.87
18396;BME280;76377;45.194;5.734;2024-03-17T05:21:45;99693.06;;;10.41;80.82
18396;BME280;76377;45.194;5.734;2024-03-17T05:24:12;99688.09;;;10.22;82.46
18396;BME280;76377;45.194;5.734;2024-03-17T05:26:39;99687.75;;;10.24;82.62
18396;BME280;76377;45.194;5.734;2024-03-17T05:29:07;99681.97;;;10.17;82.76
18396;BME280;76377;45.194;5.734;2024-03-17T05:31:35;99695.81;;;10.04;82.64
18396;BME280;76377;45.194;5.734;2024-03-17T05:34:03;99691.66;;;9.98;82.90
18396;BME280;76377;45.194;5.734;2024-03-17T05:36:30;99698.78;;;9.99;82.82
18396;BME280;76377;45.194;5.734;2024-03-17T05:38:59;99705.94;;;10.00;82.66
18396;BME280;76377;45.194;5.734;2024-03-17T05:41:26;99702.81;;;10.02;82.08
18396;BME280;76377;45.194;5.734;2024-03-17T05:43:53;99693.97;;;9.96;82.04
18396;BME280;76377;45.194;5.734;2024-03-17T05:46:24;99700.38;;;9.88;82.92
18396;BME280;76377;45.194;5.734;2024-03-17T05:48:52;99707.03;;;9.87;83.29
18396;BME280;76377;45.194;5.734;2024-03-17T05:51:21;99707.31;;;9.94;83.12
18396;BME280;76377;45.194;5.734;2024-03-17T05:53:51;99718.25;;;10.15;82.07
18396;BME280;76377;45.194;5.734;2024-03-17T05:56:18;99716.53;;;10.10;82.73
18396;BME280;76377;45.194;5.734;2024-03-17T05:58:45;99713.28;;;10.08;83.18
18396;BME280;76377;45.194;5.734;2024-03-17T06:01:12;99713.28;;;10.08;83.07
18396;BME280;76377;45.194;5.734;2024-03-17T06:03:39;99712.38;;;10.04;83.18
18396;BME280;76377;45.194;5.734;2024-03-17T06:06:07;99711.44;;;10.00;83.46
18396;BME280;76377;45.194;5.734;2024-03-17T06:08:37;99710.06;;;10.06;83.21
18396;BME280;76377;45.194;5.734;2024-03-17T06:11:04;99710.88;;;10.07;82.56
18396;BME280;76377;45.194;5.734;2024-03-17T06:13:32;99719.28;;;9.98;82.38
18396;BME280;76377;45.194;5.734;2024-03-17T06:16:01;99716.88;;;9.97;83.06
18396;BME280;76377;45.194;5.734;2024-03-17T06:18:28;99713.41;;;10.00;83.01
18396;BME280;76377;45.194;5.734;2024-03-17T06:20:55;99726.19;;;10.04;82.56
18396;BME280;76377;45.194;5.734;2024-03-17T06:23:24;99723.53;;;10.08;82.31
18396;BME280;76377;45.194;5.734;2024-03-17T06:25:54;99722.97;;;10.15;81.33
18396;BME280;76377;45.194;5.734;2024-03-17T06:28:22;99722.72;;;10.20;81.10
18396;BME280;76377;45.194;5.734;2024-03-17T06:30:56;99725.50;;;10.20;81.05
18396;BME280;76377;45.194;5.734;2024-03-17T06:33:26;99731.97;;;10.24;80.97
18396;BME280;76377;45.194;5.734;2024-03-17T06:35:54;99725.97;;;10.34;80.68
18396;BME280;76377;45.194;5.734;2024-03-17T06:38:21;99720.69;;;10.41;80.69
18396;BME280;76377;45.194;5.734;2024-03-17T06:40:49;99727.59;;;10.35;81.05
18396;BME280;76377;45.194;5.734;2024-03-17T06:43:18;99729.44;;;10.43;80.95
18396;BME280;76377;45.194;5.734;2024-03-17T06:45:54;99728.97;;;10.53;79.63
18396;BME280;76377;45.194;5.734;2024-03-17T06:48:21;99717.91;;;10.53;79.85
18396;BME280;76377;45.194;5.734;2024-03-17T06:50:49;99707.56;;;10.50;79.73
18396;BME280;76377;45.194;5.734;2024-03-17T06:53:17;99696.72;;;10.45;79.83
18396;BME280;76377;45.194;5.734;2024-03-17T06:55:44;99683.13;;;10.40;79.86
18396;BME280;76377;45.194;5.734;2024-03-17T06:58:20;99690.63;;;10.39;80.51
18396;BME280;76377;45.194;5.734;2024-03-17T07:00:53;99713.31;;;10.33;80.91
18396;BME280;76377;45.194;5.734;2024-03-17T07:03:20;99717.00;;;10.37;81.04
18396;BME280;76377;45.194;5.734;2024-03-17T07:05:53;99708.25;;;10.47;80.55
18396;BME280;76377;45.194;5.734;2024-03-17T07:08:20;99704.91;;;10.54;80.30
18396;BME280;76377;45.194;5.734;2024-03-17T07:10:58;99708.91;;;10.56;80.26
18396;BME280;76377;45.194;5.734;2024-03-17T07:13:28;99704.06;;;10.65;79.79
18396;BME280;76377;45.194;5.734;2024-03-17T07:15:56;99704.72;;;10.74;78.56
18396;BME280;76377;45.194;5.734;2024-03-17T07:18:25;99692.91;;;10.90;78.10
18396;BME280;76377;45.194;5.734;2024-03-17T07:20:53;99703.78;;;10.83;77.77
18396;BME280;76377;45.194;5.734;2024-03-17T07:23:20;99712.53;;;10.85;78.14
18396;BME280;76377;45.194;5.734;2024-03-17T07:25:54;99726.81;;;10.87;78.25
18396;BME280;76377;45.194;5.734;2024-03-17T07:28:22;99728.66;;;10.95;78.45
18396;BME280;76377;45.194;5.734;2024-03-17T07:30:52;99744.78;;;11.05;77.91
18396;BME280;76377;45.194;5.734;2024-03-17T07:33:20;99743.13;;;11.16;77.21
18396;BME280;76377;45.194;5.734;2024-03-17T07:35:51;99752.53;;;11.27;76.52
18396;BME280;76377;45.194;5.734;2024-03-17T07:38:23;99754.78;;;11.37;75.76
18396;BME280;76377;45.194;5.734;2024-03-17T07:40:59;99749.69;;;11.39;74.97
18396;BME280;76377;45.194;5.734;2024-03-17T07:43:27;99755.81;;;11.45;74.66
18396;BME280;76377;45.194;5.734;2024-03-17T07:46:00;99758.06;;;11.55;75.57
18396;BME280;76377;45.194;5.734;2024-03-17T07:48:28;99768.44;;;11.58;75.89
18396;BME280;76377;45.194;5.734;2024-03-17T07:50:56;99762.81;;;11.55;76.46
18396;BME280;76377;45.194;5.734;2024-03-17T07:53:23;99761.00;;;11.47;75.94
18396;BME280;76377;45.194;5.734;2024-03-17T07:55:59;99760.28;;;11.50;76.16
18396;BME280;76377;45.194;5.734;2024-03-17T07:58:27;99761.47;;;11.64;74.80
18396;BME280;76377;45.194;5.734;2024-03-17T08:00:57;99763.06;;;11.50;74.85
18396;BME280;76377;45.194;5.734;2024-03-17T08:03:26;99761.19;;;11.54;75.87
18396;BME280;76377;45.194;5.734;2024-03-17T08:05:54;99763.63;;;11.71;75.15
18396;BME280;76377;45.194;5.734;2024-03-17T08:08:21;99755.59;;;11.66;75.14
18396;BME280;76377;45.194;5.734;2024-03-17T08:10:48;99742.34;;;11.59;75.28
18396;BME280;76377;45.194;5.734;2024-03-17T08:13:15;99749.59;;;11.64;75.56
18396;BME280;76377;45.194;5.734;2024-03-17T08:15:43;99738.25;;;11.69;75.73
18396;BME280;76377;45.194;5.734;2024-03-17T08:18:11;99739.16;;;11.73;75.42
18396;BME280;76377;45.194;5.734;2024-03-17T08:20:39;99739.28;;;11.92;74.30
18396;BME280;76377;45.194;5.734;2024-03-17T08:23:08;99719.72;;;12.01;73.02
18396;BME280;76377;45.194;5.734;2024-03-17T08:25:36;99715.78;;;12.18;73.08
18396;BME280;76377;45.194;5.734;2024-03-17T08:28:04;99725.41;;;12.55;71.51
18396;BME280;76377;45.194;5.734;2024-03-17T08:30:31;99716.97;;;12.87;69.46
18396;BME280;76377;45.194;5.734;2024-03-17T08:32:58;99707.19;;;12.93;67.87
18396;BME280;76377;45.194;5.734;2024-03-17T08:35:26;99707.31;;;12.81;68.73
18396;BME280;76377;45.194;5.734;2024-03-17T08:37:54;99710.31;;;12.72;69.17
18396;BME280;76377;45.194;5.734;2024-03-17T08:40:21;99709.03;;;12.50;70.78
18396;BME280;76377;45.194;5.734;2024-03-17T08:42:49;99708.78;;;12.40;71.93
18396;BME280;76377;45.194;5.734;2024-03-17T08:45:16;99710.28;;;12.37;71.46
18396;BME280;76377;45.194;5.734;2024-03-17T08:47:43;99703.66;;;12.57;70.97
18396;BME280;76377;45.194;5.734;2024-03-17T08:50:11;99701.31;;;12.59;70.59
18396;BME280;76377;45.194;5.734;2024-03-17T08:52:38;99693.06;;;13.17;68.75
18396;BME280;76377;45.194;5.734;2024-03-17T08:55:09;99693.28;;;13.70;66.88
18396;BME280;76377;45.194;5.734;2024-03-17T08:57:39;99689.94;;;14.07;64.18
18396;BME280;76377;45.194;5.734;2024-03-17T09:00:08;99685.09;;;14.04;64.40
18396;BME280;76377;45.194;5.734;2024-03-17T09:02:36;99675.66;;;14.08;62.56
18396;BME280;76377;45.194;5.734;2024-03-17T09:05:03;99676.59;;;13.70;63.38
18396;BME280;76377;45.194;5.734;2024-03-17T09:07:31;99681.63;;;13.42;64.31
18396;BME280;76377;45.194;5.734;2024-03-17T09:09:58;99680.75;;;13.38;64.90
18396;BME280;76377;45.194;5.734;2024-03-17T09:12:27;99678.34;;;13.55;64.14
18396;BME280;76377;45.194;5.734;2024-03-17T09:14:54;99671.16;;;13.54;64.07
18396;BME280;76377;45.194;5.734;2024-03-17T09:17:21;99666.22;;;13.67;64.33
18396;BME280;76377;45.194;5.734;2024-03-17T09:19:48;99664.75;;;13.73;63.99
18396;BME280;76377;45.194;5.734;2024-03-17T09:22:15;99658.25;;;14.11;62.76
18396;BME280;76377;45.194;5.734;2024-03-17T09:24:43;99659.47;;;14.67;60.89
18396;BME280;76377;45.194;5.734;2024-03-17T09:27:10;99651.56;;;15.02;59.00
18396;BME280;76377;45.194;5.734;2024-03-17T09:29:39;99644.78;;;15.37;57.71
18396;BME280;76377;45.194;5.734;2024-03-17T09:32:06;99636.78;;;15.32;57.19
18396;BME280;76377;45.194;5.734;2024-03-17T09:34:37;99639.25;;;15.77;56.13
18396;BME280;76377;45.194;5.734;2024-03-17T09:37:04;99627.31;;;15.81;55.12
18396;BME280;76377;45.194;5.734;2024-03-17T09:39:32;99625.03;;;15.93;54.00
18396;BME280;76377;45.194;5.734;2024-03-17T09:42:00;99625.16;;;16.11;53.56
18396;BME280;76377;45.194;5.734;2024-03-17T09:44:30;99620.97;;;16.38;53.04
18396;BME280;76377;45.194;5.734;2024-03-17T09:47:00;99616.66;;;15.90;53.61
18396;BME280;76377;45.194;5.734;2024-03-17T09:49:29;99598.97;;;16.23;52.43
18396;BME280;76377;45.194;5.734;2024-03-17T09:51:59;99606.81;;;16.10;53.00
18396;BME280;76377;45.194;5.734;2024-03-17T09:54:26;99600.09;;;16.15;52.51
18396;BME280;76377;45.194;5.734;2024-03-17T09:56:53;99600.16;;;16.22;53.01
18396;BME280;76377;45.194;5.734;2024-03-17T09:59:20;99595.75;;;16.17;52.73
18396;BME280;76377;45.194;5.734;2024-03-17T10:01:48;99593.13;;;16.53;52.51
18396;BME280;76377;45.194;5.734;2024-03-17T10:04:31;99601.88;;;16.48;52.02
18396;BME280;76377;45.194;5.734;2024-03-17T10:06:59;99602.66;;;16.45;51.84
18396;BME280;76377;45.194;5.734;2024-03-17T10:09:26;99600.88;;;16.84;51.29
18396;BME280;76377;45.194;5.734;2024-03-17T10:11:58;99588.31;;;16.42;51.55
18396;BME280;76377;45.194;5.734;2024-03-17T10:14:25;99591.44;;;16.30;51.88
18396;BME280;76377;45.194;5.734;2024-03-17T10:16:52;99591.50;;;16.48;51.84
18396;BME280;76377;45.194;5.734;2024-03-17T10:19:23;99576.59;;;16.95;51.12
18396;BME280;76377;45.194;5.734;2024-03-17T10:21:59;99579.03;;;17.15;50.04
18396;BME280;76377;45.194;5.734;2024-03-17T10:24:27;99580.66;;;17.33;49.79
18396;BME280;76377;45.194;5.734;2024-03-17T10:26:56;99583.06;;;17.63;48.69
18396;BME280;76377;45.194;5.734;2024-03-17T10:29:25;99572.72;;;17.96;48.00
18396;BME280;76377;45.194;5.734;2024-03-17T10:31:54;99576.69;;;18.23;47.00
18396;BME280;76377;45.194;5.734;2024-03-17T10:34:22;99572.66;;;18.32;46.74
18396;BME280;76377;45.194;5.734;2024-03-17T10:37:06;99569.50;;;18.08;47.19
18396;BME280;76377;45.194;5.734;2024-03-17T10:39:34;99571.47;;;18.11;46.52
18396;BME280;76377;45.194;5.734;2024-03-17T10:42:04;99557.47;;;18.15;46.72
18396;BME280;76377;45.194;5.734;2024-03-17T10:44:32;99558.28;;;18.22;45.50
18396;BME280;76377;45.194;5.734;2024-03-17T10:47:01;99548.69;;;18.23;45.17
18396;BME280;76377;45.194;5.734;2024-03-17T10:49:30;99552.69;;;18.15;45.16
18396;BME280;76377;45.194;5.734;2024-03-17T10:52:01;99557.47;;;18.25;45.08
18396;BME280;76377;45.194;5.734;2024-03-17T10:54:30;99554.28;;;18.27;44.61
18396;BME280;76377;45.194;5.734;2024-03-17T10:57:07;99546.69;;;18.20;45.27
18396;BME280;76377;45.194;5.734;2024-03-17T10:59:42;99540.25;;;18.34;44.75
18396;BME280;76377;45.194;5.734;2024-03-17T11:02:20;99539.75;;;18.57;44.22
18396;BME280;76377;45.194;5.734;2024-03-17T11:04:51;99533.88;;;18.34;44.68
18396;BME280;76377;45.194;5.734;2024-03-17T11:07:21;99531.09;;;18.23;45.15
18396;BME280;76377;45.194;5.734;2024-03-17T11:09:51;99527.47;;;18.29;45.29
18396;BME280;76377;45.194;5.734;2024-03-17T11:12:44;99525.38;;;18.51;45.32
18396;BME280;76377;45.194;5.734;2024-03-17T11:15:34;99520.16;;;18.57;45.25
18396;BME280;76377;45.194;5.734;2024-03-17T11:18:35;99509.50;;;18.16;45.99
18396;BME280;76377;45.194;5.734;2024-03-17T11:21:07;99511.91;;;18.21;45.79
18396;BME280;76377;45.194;5.734;2024-03-17T11:23:57;99503.09;;;18.26;45.79
18396;BME280;76377;45.194;5.734;2024-03-17T11:26:32;99499.09;;;18.17;45.99
18396;BME280;76377;45.194;5.734;2024-03-17T11:29:01;99503.13;;;18.16;46.16
18396;BME280;76377;45.194;5.734;2024-03-17T11:31:43;99501.63;;;17.83;47.13
18396;BME280;76377;45.194;5.734;2024-03-17T11:34:42;99491.97;;;18.02;46.85
18396;BME280;76377;45.194;5.734;2024-03-17T11:37:40;99491.97;;;17.98;46.66
18396;BME280;76377;45.194;5.734;2024-03-17T11:40:23;99488.03;;;17.78;47.05
18396;BME280;76377;45.194;5.734;2024-03-17T11:43:05;99476.03;;;17.81;47.23
18396;BME280;76377;45.194;5.734;2024-03-17T11:45:33;99480.06;;;17.69;47.67
18396;BME280;76377;45.194;5.734;2024-03-17T11:47:59;99475.97;;;18.02;47.04
18396;BME280;76377;45.194;5.734;2024-03-17T11:50:27;99489.47;;;18.36;45.48
18396;BME280;76377;45.194;5.734;2024-03-17T11:52:58;99488.97;;;18.55;45.46
18396;BME280;76377;45.194;5.734;2024-03-17T11:55:26;99484.31;;;18.23;45.63
18396;BME280;76377;45.194;5.734;2024-03-17T11:57:55;99488.66;;;18.39;45.77
18396;BME280;76377;45.194;5.734;2024-03-17T12:00:23;99476.69;;;18.31;45.59
18396;BME280;76377;45.194;5.734;2024-03-17T12:02:50;99475.84;;;18.38;45.34
18396;BME280;76377;45.194;5.734;2024-03-17T12:05:17;99467.13;;;18.21;45.99
18396;BME280;76377;45.194;5.734;2024-03-17T12:07:44;99463.88;;;18.34;45.39
18396;BME280;76377;45.194;5.734;2024-03-17T12:10:11;99471.09;;;18.27;45.90
18396;BME280;76377;45.194;5.734;2024-03-17T12:12:41;99463.75;;;18.55;45.15
18396;BME280;76377;45.194;5.734;2024-03-17T12:15:17;99453.38;;;18.52;44.72
18396;BME280;76377;45.194;5.734;2024-03-17T12:17:45;99454.00;;;18.88;44.44
18396;BME280;76377;45.194;5.734;2024-03-17T12:20:18;99442.81;;;18.84;44.40
18396;BME280;76377;45.194;5.734;2024-03-17T12:22:45;99442.06;;;18.80;43.85
18396;BME280;76377;45.194;5.734;2024-03-17T12:25:18;99442.88;;;18.77;44.63
18396;BME280;76377;45.194;5.734;2024-03-17T12:27:47;99439.53;;;18.97;43.83
18396;BME280;76377;45.194;5.734;2024-03-17T12:30:14;99436.31;;;18.98;44.42
18396;BME280;76377;45.194;5.734;2024-03-17T12:32:43;99438.69;;;19.00;44.16
18396;BME280;76377;45.194;5.734;2024-03-17T12:35:14;99421.78;;;19.14;43.39
18396;BME280;76377;45.194;5.734;2024-03-17T12:37:44;99413.66;;;19.27;42.86
18396;BME280;76377;45.194;5.734;2024-03-17T12:40:19;99424.81;;;19.34;42.92
18396;BME280;76377;45.194;5.734;2024-03-17T12:42:49;99427.13;;;19.42;42.80
18396;BME280;76377;45.194;5.734;2024-03-17T12:45:19;99415.41;;;19.54;42.29
18396;BME280;76377;45.194;5.734;2024-03-17T12:47:48;99411.03;;;19.53;42.62
18396;BME280;76377;45.194;5.734;2024-03-17T12:50:14;99405.66;;;19.29;43.41
18396;BME280;76377;45.194;5.734;2024-03-17T12:52:52;99404.88;;;19.21;43.69
18396;BME280;76377;45.194;5.734;2024-03-17T12:55:19;99404.84;;;19.28;43.66
18396;BME280;76377;45.194;5.734;2024-03-17T12:58:08;99399.28;;;19.21;43.35
18396;BME280;76377;45.194;5.734;2024-03-17T13:00:57;99408.91;;;19.20;43.29
18396;BME280;76377;45.194;5.734;2024-03-17T13:03:26;99406.84;;;19.24;43.53
18396;BME280;76377;45.194;5.734;2024-03-17T13:05:55;99406.44;;;19.29;43.30
18396;BME280;76377;45.194;5.734;2024-03-17T13:08:22;99401.66;;;19.26;43.27
18396;BME280;76377;45.194;5.734;2024-03-17T13:10:49;99389.13;;;19.38;43.31